sensor_id;sensor_type;location;lat;lon;timestamp;P1;durP1;ratioP1;P2;durP2;ratioP2
38262;SDS011;24054;50.128;19.730;2022-08-25T00:01:46;8.98;;;7.53;;
38262;SDS011;24054;50.128;19.730;2022-08-25T00:04:15;7.90;;;7.10;;
38262;SDS011;24054;50.128;19.730;2022-08-25T00:06:43;8.65;;;7.47;;
38262;SDS011;24054;50.128;19.730;2022-08-25T00:09:11;9.23;;;7.77;;
38262;SDS011;24054;50.128;19.730;2022-08-25T00:11:40;8.68;;;7.78;;
38262;SDS011;24054;50.128;19.730;2022-08-25T00:14:11;8.43;;;7.50;;
38262;SDS011;24054;50.128;19.730;2022-08-25T00:16:40;10.88;;;7.63;;
38262;SDS011;24054;50.128;19.730;2022-08-25T00:19:09;9.43;;;7.37;;
38262;SDS011;24054;50.128;19.730;2022-08-25T00:21:38;9.00;;;7.78;;
38262;SDS011;24054;50.128;19.730;2022-08-25T00:24:06;8.40;;;7.23;;
38262;SDS011;24054;50.128;19.730;2022-08-25T00:26:36;9.00;;;8.10;;
38262;SDS011;24054;50.128;19.730;2022-08-25T00:29:04;8.57;;;7.78;;
38262;SDS011;24054;50.128;19.730;2022-08-25T00:31:33;8.02;;;7.22;;
38262;SDS011;24054;50.128;19.730;2022-08-25T00:34:00;7.53;;;6.78;;
38262;SDS011;24054;50.128;19.730;2022-08-25T00:36:28;8.60;;;7.53;;
38262;SDS011;24054;50.128;19.730;2022-08-25T00:38:55;7.97;;;7.18;;
38262;SDS011;24054;50.128;19.730;2022-08-25T00:41:23;8.02;;;7.22;;
38262;SDS011;24054;50.128;19.730;2022-08-25T00:43:52;9.07;;;7.72;;
38262;SDS011;24054;50.128;19.730;2022-08-25T00:46:22;7.60;;;6.63;;
38262;SDS011;24054;50.128;19.730;2022-08-25T00:48:54;9.20;;;6.85;;
38262;SDS011;24054;50.128;19.730;2022-08-25T00:51:26;7.60;;;6.72;;
38262;SDS011;24054;50.128;19.730;2022-08-25T00:53:57;7.82;;;6.60;;
38262;SDS011;24054;50.128;19.730;2022-08-25T00:56:24;7.63;;;6.82;;
38262;SDS011;24054;50.128;19.730;2022-08-25T00:58:55;7.30;;;6.43;;
38262;SDS011;24054;50.128;19.730;2022-08-25T01:01:23;7.97;;;6.22;;
38262;SDS011;24054;50.128;19.730;2022-08-25T01:03:52;7.95;;;6.70;;
38262;SDS011;24054;50.128;19.730;2022-08-25T01:08:46;6.85;;;6.15;;
38262;SDS011;24054;50.128;19.730;2022-08-25T01:11:13;8.77;;;6.95;;
38262;SDS011;24054;50.128;19.730;2022-08-25T01:13:41;8.07;;;6.90;;
38262;SDS011;24054;50.128;19.730;2022-08-25T01:16:13;7.85;;;7.05;;
38262;SDS011;24054;50.128;19.730;2022-08-25T01:18:41;7.45;;;6.47;;
38262;SDS011;24054;50.128;19.730;2022-08-25T01:21:12;7.47;;;6.75;;
38262;SDS011;24054;50.128;19.730;2022-08-25T01:23:39;8.32;;;6.70;;
38262;SDS011;24054;50.128;19.730;2022-08-25T01:26:08;7.22;;;6.53;;
38262;SDS011;24054;50.128;19.730;2022-08-25T01:28:38;7.63;;;6.45;;
38262;SDS011;24054;50.128;19.730;2022-08-25T01:31:26;7.57;;;6.75;;
38262;SDS011;24054;50.128;19.730;2022-08-25T01:33:54;7.43;;;6.72;;
38262;SDS011;24054;50.128;19.730;2022-08-25T01:36:23;7.18;;;6.45;;
38262;SDS011;24054;50.128;19.730;2022-08-25T01:38:51;7.88;;;6.50;;
38262;SDS011;24054;50.128;19.730;2022-08-25T01:41:20;7.43;;;6.50;;
38262;SDS011;24054;50.128;19.730;2022-08-25T01:43:55;8.30;;;6.25;;
38262;SDS011;24054;50.128;19.730;2022-08-25T01:46:22;6.97;;;6.28;;
38262;SDS011;24054;50.128;19.730;2022-08-25T01:48:49;7.40;;;6.70;;
38262;SDS011;24054;50.128;19.730;2022-08-25T01:51:16;6.90;;;6.20;;
38262;SDS011;24054;50.128;19.730;2022-08-25T01:53:47;6.88;;;6.18;;
38262;SDS011;24054;50.128;19.730;2022-08-25T01:58:43;6.82;;;6.00;;
38262;SDS011;24054;50.128;19.730;2022-08-25T02:01:13;7.22;;;6.47;;
38262;SDS011;24054;50.128;19.730;2022-08-25T02:03:42;6.80;;;5.90;;
38262;SDS011;24054;50.128;19.730;2022-08-25T02:06:10;8.10;;;6.32;;
38262;SDS011;24054;50.128;19.730;2022-08-25T02:08:38;7.20;;;6.50;;
38262;SDS011;24054;50.128;19.730;2022-08-25T02:11:09;6.93;;;6.18;;
38262;SDS011;24054;50.128;19.730;2022-08-25T02:13:37;6.93;;;6.22;;
38262;SDS011;24054;50.128;19.730;2022-08-25T02:16:04;9.07;;;6.40;;
38262;SDS011;24054;50.128;19.730;2022-08-25T02:18:33;6.75;;;6.05;;
38262;SDS011;24054;50.128;19.730;2022-08-25T02:21:00;6.90;;;6.20;;
38262;SDS011;24054;50.128;19.730;2022-08-25T02:23:27;8.50;;;6.53;;
38262;SDS011;24054;50.128;19.730;2022-08-25T02:25:54;7.07;;;6.18;;
38262;SDS011;24054;50.128;19.730;2022-08-25T02:28:23;7.00;;;6.28;;
38262;SDS011;24054;50.128;19.730;2022-08-25T02:30:51;6.88;;;6.18;;
38262;SDS011;24054;50.128;19.730;2022-08-25T02:33:18;7.85;;;6.43;;
38262;SDS011;24054;50.128;19.730;2022-08-25T02:35:46;6.35;;;5.75;;
38262;SDS011;24054;50.128;19.730;2022-08-25T02:38:13;7.55;;;5.93;;
38262;SDS011;24054;50.128;19.730;2022-08-25T02:40:40;7.47;;;5.97;;
38262;SDS011;24054;50.128;19.730;2022-08-25T02:43:07;6.47;;;5.82;;
38262;SDS011;24054;50.128;19.730;2022-08-25T02:45:35;6.72;;;5.68;;
38262;SDS011;24054;50.128;19.730;2022-08-25T02:48:02;7.35;;;6.18;;
38262;SDS011;24054;50.128;19.730;2022-08-25T02:50:29;8.98;;;5.80;;
38262;SDS011;24054;50.128;19.730;2022-08-25T02:52:57;7.47;;;6.28;;
38262;SDS011;24054;50.128;19.730;2022-08-25T02:55:24;7.13;;;5.70;;
38262;SDS011;24054;50.128;19.730;2022-08-25T02:57:51;6.45;;;5.80;;
38262;SDS011;24054;50.128;19.730;2022-08-25T03:00:18;6.32;;;5.72;;
38262;SDS011;24054;50.128;19.730;2022-08-25T03:02:47;6.60;;;5.78;;
38262;SDS011;24054;50.128;19.730;2022-08-25T03:05:14;6.82;;;6.13;;
38262;SDS011;24054;50.128;19.730;2022-08-25T03:07:41;6.13;;;5.53;;
38262;SDS011;24054;50.128;19.730;2022-08-25T03:10:09;7.07;;;5.35;;
38262;SDS011;24054;50.128;19.730;2022-08-25T03:12:38;7.35;;;5.45;;
38262;SDS011;24054;50.128;19.730;2022-08-25T03:15:06;6.72;;;6.03;;
38262;SDS011;24054;50.128;19.730;2022-08-25T03:17:34;7.18;;;6.30;;
38262;SDS011;24054;50.128;19.730;2022-08-25T03:20:04;5.80;;;5.20;;
38262;SDS011;24054;50.128;19.730;2022-08-25T03:22:32;6.85;;;6.20;;
38262;SDS011;24054;50.128;19.730;2022-08-25T03:24:59;7.13;;;6.07;;
38262;SDS011;24054;50.128;19.730;2022-08-25T03:27:40;7.53;;;5.68;;
38262;SDS011;24054;50.128;19.730;2022-08-25T03:30:07;6.63;;;5.82;;
38262;SDS011;24054;50.128;19.730;2022-08-25T03:32:35;6.18;;;5.57;;
38262;SDS011;24054;50.128;19.730;2022-08-25T03:35:04;6.00;;;5.45;;
38262;SDS011;24054;50.128;19.730;2022-08-25T03:37:32;7.10;;;5.40;;
38262;SDS011;24054;50.128;19.730;2022-08-25T03:39:59;6.65;;;5.70;;
38262;SDS011;24054;50.128;19.730;2022-08-25T03:42:27;6.13;;;5.53;;
38262;SDS011;24054;50.128;19.730;2022-08-25T03:44:54;6.60;;;5.43;;
38262;SDS011;24054;50.128;19.730;2022-08-25T03:47:21;8.38;;;6.00;;
38262;SDS011;24054;50.128;19.730;2022-08-25T03:49:50;6.25;;;5.50;;
38262;SDS011;24054;50.128;19.730;2022-08-25T03:52:19;5.90;;;5.30;;
38262;SDS011;24054;50.128;19.730;2022-08-25T03:54:46;5.60;;;5.10;;
38262;SDS011;24054;50.128;19.730;2022-08-25T03:57:13;6.85;;;5.18;;
38262;SDS011;24054;50.128;19.730;2022-08-25T03:59:40;6.18;;;5.32;;
38262;SDS011;24054;50.128;19.730;2022-08-25T04:02:07;6.20;;;5.60;;
38262;SDS011;24054;50.128;19.730;2022-08-25T04:04:34;5.63;;;4.93;;
38262;SDS011;24054;50.128;19.730;2022-08-25T04:07:01;6.53;;;5.07;;
38262;SDS011;24054;50.128;19.730;2022-08-25T04:09:29;5.57;;;5.07;;
38262;SDS011;24054;50.128;19.730;2022-08-25T04:11:56;5.55;;;5.05;;
38262;SDS011;24054;50.128;19.730;2022-08-25T04:14:24;6.30;;;5.47;;
38262;SDS011;24054;50.128;19.730;2022-08-25T04:16:51;5.78;;;5.18;;
38262;SDS011;24054;50.128;19.730;2022-08-25T04:19:18;5.70;;;5.10;;
38262;SDS011;24054;50.128;19.730;2022-08-25T04:21:45;7.10;;;5.53;;
38262;SDS011;24054;50.128;19.730;2022-08-25T04:24:12;7.07;;;4.97;;
38262;SDS011;24054;50.128;19.730;2022-08-25T04:26:42;6.43;;;5.63;;
38262;SDS011;24054;50.128;19.730;2022-08-25T04:29:11;5.70;;;5.07;;
38262;SDS011;24054;50.128;19.730;2022-08-25T04:31:42;6.60;;;5.03;;
38262;SDS011;24054;50.128;19.730;2022-08-25T04:34:11;5.60;;;5.05;;
38262;SDS011;24054;50.128;19.730;2022-08-25T04:36:38;5.30;;;4.78;;
38262;SDS011;24054;50.128;19.730;2022-08-25T04:39:05;5.80;;;4.82;;
38262;SDS011;24054;50.128;19.730;2022-08-25T04:41:32;6.15;;;5.28;;
38262;SDS011;24054;50.128;19.730;2022-08-25T04:44:01;5.78;;;4.97;;
38262;SDS011;24054;50.128;19.730;2022-08-25T04:46:29;5.10;;;4.60;;
38262;SDS011;24054;50.128;19.730;2022-08-25T04:48:58;5.35;;;4.85;;
38262;SDS011;24054;50.128;19.730;2022-08-25T04:51:27;5.50;;;4.90;;
38262;SDS011;24054;50.128;19.730;2022-08-25T04:53:57;5.30;;;4.80;;
38262;SDS011;24054;50.128;19.730;2022-08-25T04:56:26;5.38;;;4.85;;
38262;SDS011;24054;50.128;19.730;2022-08-25T04:58:54;4.82;;;4.35;;
38262;SDS011;24054;50.128;19.730;2022-08-25T05:01:23;5.78;;;4.95;;
38262;SDS011;24054;50.128;19.730;2022-08-25T05:03:52;5.68;;;4.55;;
38262;SDS011;24054;50.128;19.730;2022-08-25T05:06:21;5.40;;;4.90;;
38262;SDS011;24054;50.128;19.730;2022-08-25T05:08:48;5.15;;;4.55;;
38262;SDS011;24054;50.128;19.730;2022-08-25T05:11:15;5.10;;;4.60;;
38262;SDS011;24054;50.128;19.730;2022-08-25T05:13:44;5.25;;;4.30;;
38262;SDS011;24054;50.128;19.730;2022-08-25T05:16:12;4.60;;;4.20;;
38262;SDS011;24054;50.128;19.730;2022-08-25T05:18:40;6.00;;;5.05;;
38262;SDS011;24054;50.128;19.730;2022-08-25T05:21:09;5.38;;;4.43;;
38262;SDS011;24054;50.128;19.730;2022-08-25T05:23:38;5.05;;;4.55;;
38262;SDS011;24054;50.128;19.730;2022-08-25T05:26:06;6.80;;;4.97;;
38262;SDS011;24054;50.128;19.730;2022-08-25T05:28:35;5.15;;;4.65;;
38262;SDS011;24054;50.128;19.730;2022-08-25T05:31:02;5.47;;;4.80;;
38262;SDS011;24054;50.128;19.730;2022-08-25T05:33:30;5.30;;;4.50;;
38262;SDS011;24054;50.128;19.730;2022-08-25T05:35:58;5.55;;;4.70;;
38262;SDS011;24054;50.128;19.730;2022-08-25T05:38:25;5.55;;;4.55;;
38262;SDS011;24054;50.128;19.730;2022-08-25T05:40:55;5.72;;;4.75;;
38262;SDS011;24054;50.128;19.730;2022-08-25T05:43:23;5.60;;;4.47;;
38262;SDS011;24054;50.128;19.730;2022-08-25T05:45:52;5.78;;;4.93;;
38262;SDS011;24054;50.128;19.730;2022-08-25T05:48:19;5.10;;;4.60;;
38262;SDS011;24054;50.128;19.730;2022-08-25T05:50:49;4.97;;;4.47;;
38262;SDS011;24054;50.128;19.730;2022-08-25T05:53:18;8.45;;;4.97;;
38262;SDS011;24054;50.128;19.730;2022-08-25T05:55:46;5.60;;;4.80;;
38262;SDS011;24054;50.128;19.730;2022-08-25T05:58:13;5.80;;;4.45;;
38262;SDS011;24054;50.128;19.730;2022-08-25T06:00:40;5.10;;;4.35;;
38262;SDS011;24054;50.128;19.730;2022-08-25T06:03:08;5.43;;;4.57;;
38262;SDS011;24054;50.128;19.730;2022-08-25T06:05:34;5.65;;;4.60;;
38262;SDS011;24054;50.128;19.730;2022-08-25T06:08:01;4.45;;;4.05;;
38262;SDS011;24054;50.128;19.730;2022-08-25T06:10:30;4.90;;;4.32;;
38262;SDS011;24054;50.128;19.730;2022-08-25T06:12:58;4.85;;;4.25;;
38262;SDS011;24054;50.128;19.730;2022-08-25T06:15:25;6.35;;;4.63;;
38262;SDS011;24054;50.128;19.730;2022-08-25T06:17:52;5.15;;;4.43;;
38262;SDS011;24054;50.128;19.730;2022-08-25T06:20:22;5.30;;;4.78;;
38262;SDS011;24054;50.128;19.730;2022-08-25T06:22:51;5.25;;;4.05;;
38262;SDS011;24054;50.128;19.730;2022-08-25T06:25:19;5.38;;;4.45;;
38262;SDS011;24054;50.128;19.730;2022-08-25T06:27:49;7.15;;;4.80;;
38262;SDS011;24054;50.128;19.730;2022-08-25T06:30:17;4.70;;;4.30;;
38262;SDS011;24054;50.128;19.730;2022-08-25T06:32:46;5.82;;;4.78;;
38262;SDS011;24054;50.128;19.730;2022-08-25T06:35:14;5.55;;;4.35;;
38262;SDS011;24054;50.128;19.730;2022-08-25T06:37:43;5.53;;;4.40;;
38262;SDS011;24054;50.128;19.730;2022-08-25T06:40:11;5.95;;;4.32;;
38262;SDS011;24054;50.128;19.730;2022-08-25T06:42:40;6.00;;;4.63;;
38262;SDS011;24054;50.128;19.730;2022-08-25T06:45:09;5.82;;;5.07;;
38262;SDS011;24054;50.128;19.730;2022-08-25T06:47:36;5.75;;;5.15;;
38262;SDS011;24054;50.128;19.730;2022-08-25T06:50:04;7.13;;;5.90;;
38262;SDS011;24054;50.128;19.730;2022-08-25T06:52:32;13.48;;;8.95;;
38262;SDS011;24054;50.128;19.730;2022-08-25T06:54:59;15.93;;;10.57;;
38262;SDS011;24054;50.128;19.730;2022-08-25T06:57:27;27.33;;;16.00;;
38262;SDS011;24054;50.128;19.730;2022-08-25T06:59:55;46.63;;;26.67;;
38262;SDS011;24054;50.128;19.730;2022-08-25T07:02:24;49.08;;;29.42;;
38262;SDS011;24054;50.128;19.730;2022-08-25T07:04:51;54.67;;;30.00;;
38262;SDS011;24054;50.128;19.730;2022-08-25T07:07:18;53.95;;;30.40;;
38262;SDS011;24054;50.128;19.730;2022-08-25T07:09:45;54.38;;;31.42;;
38262;SDS011;24054;50.128;19.730;2022-08-25T07:12:12;64.40;;;35.63;;
38262;SDS011;24054;50.128;19.730;2022-08-25T07:14:39;58.10;;;31.63;;
38262;SDS011;24054;50.128;19.730;2022-08-25T07:17:07;60.75;;;35.05;;
38262;SDS011;24054;50.128;19.730;2022-08-25T07:19:36;56.53;;;30.80;;
38262;SDS011;24054;50.128;19.730;2022-08-25T07:24:30;56.10;;;31.85;;
38262;SDS011;24054;50.128;19.730;2022-08-25T07:26:57;51.33;;;30.70;;
38262;SDS011;24054;50.128;19.730;2022-08-25T07:29:27;63.97;;;33.25;;
38262;SDS011;24054;50.128;19.730;2022-08-25T07:31:56;50.58;;;30.67;;
38262;SDS011;24054;50.128;19.730;2022-08-25T07:34:24;50.58;;;30.02;;
38262;SDS011;24054;50.128;19.730;2022-08-25T07:37:09;51.45;;;29.20;;
38262;SDS011;24054;50.128;19.730;2022-08-25T07:39:37;55.80;;;29.55;;
38262;SDS011;24054;50.128;19.730;2022-08-25T07:42:04;49.70;;;26.98;;
38262;SDS011;24054;50.128;19.730;2022-08-25T07:44:33;47.78;;;26.10;;
38262;SDS011;24054;50.128;19.730;2022-08-25T07:47:00;50.42;;;25.65;;
38262;SDS011;24054;50.128;19.730;2022-08-25T07:49:27;40.20;;;18.60;;
38262;SDS011;24054;50.128;19.730;2022-08-25T07:51:54;37.17;;;17.75;;
38262;SDS011;24054;50.128;19.730;2022-08-25T07:54:23;30.17;;;13.18;;
38262;SDS011;24054;50.128;19.730;2022-08-25T07:56:52;38.38;;;12.10;;
38262;SDS011;24054;50.128;19.730;2022-08-25T07:59:19;32.13;;;11.60;;
38262;SDS011;24054;50.128;19.730;2022-08-25T08:01:46;24.58;;;9.82;;
38262;SDS011;24054;50.128;19.730;2022-08-25T08:04:13;26.63;;;10.05;;
38262;SDS011;24054;50.128;19.730;2022-08-25T08:06:40;33.63;;;10.23;;
38262;SDS011;24054;50.128;19.730;2022-08-25T08:09:07;28.65;;;8.93;;
38262;SDS011;24054;50.128;19.730;2022-08-25T08:11:36;25.45;;;8.48;;
38262;SDS011;24054;50.128;19.730;2022-08-25T08:14:08;33.25;;;8.10;;
38262;SDS011;24054;50.128;19.730;2022-08-25T08:16:37;23.98;;;8.27;;
38262;SDS011;24054;50.128;19.730;2022-08-25T08:19:04;23.88;;;8.02;;
38262;SDS011;24054;50.128;19.730;2022-08-25T08:21:33;21.65;;;7.78;;
38262;SDS011;24054;50.128;19.730;2022-08-25T08:24:02;27.33;;;7.90;;
38262;SDS011;24054;50.128;19.730;2022-08-25T08:26:29;25.48;;;8.43;;
38262;SDS011;24054;50.128;19.730;2022-08-25T08:29:00;19.08;;;8.65;;
38262;SDS011;24054;50.128;19.730;2022-08-25T08:31:28;22.02;;;7.85;;
38262;SDS011;24054;50.128;19.730;2022-08-25T08:33:55;20.45;;;7.43;;
38262;SDS011;24054;50.128;19.730;2022-08-25T08:36:23;26.05;;;8.23;;
38262;SDS011;24054;50.128;19.730;2022-08-25T08:38:51;21.10;;;7.70;;
38262;SDS011;24054;50.128;19.730;2022-08-25T08:41:25;27.95;;;8.55;;
38262;SDS011;24054;50.128;19.730;2022-08-25T08:44:38;22.73;;;8.48;;
38262;SDS011;24054;50.128;19.730;2022-08-25T08:47:10;28.75;;;7.85;;
38262;SDS011;24054;50.128;19.730;2022-08-25T08:49:48;19.98;;;7.40;;
38262;SDS011;24054;50.128;19.730;2022-08-25T08:52:21;27.70;;;8.80;;
38262;SDS011;24054;50.128;19.730;2022-08-25T08:55:02;24.25;;;8.70;;
38262;SDS011;24054;50.128;19.730;2022-08-25T08:57:38;22.27;;;8.63;;
38262;SDS011;24054;50.128;19.730;2022-08-25T09:00:13;29.02;;;7.85;;
38262;SDS011;24054;50.128;19.730;2022-08-25T09:02:44;26.67;;;8.43;;
38262;SDS011;24054;50.128;19.730;2022-08-25T09:05:16;22.23;;;7.70;;
38262;SDS011;24054;50.128;19.730;2022-08-25T09:07:46;23.58;;;7.93;;
38262;SDS011;24054;50.128;19.730;2022-08-25T09:10:16;26.75;;;9.75;;
38262;SDS011;24054;50.128;19.730;2022-08-25T09:12:45;20.15;;;7.40;;
38262;SDS011;24054;50.128;19.730;2022-08-25T09:15:27;23.60;;;8.02;;
38262;SDS011;24054;50.128;19.730;2022-08-25T09:18:17;26.25;;;7.28;;
38262;SDS011;24054;50.128;19.730;2022-08-25T09:20:58;22.98;;;7.25;;
38262;SDS011;24054;50.128;19.730;2022-08-25T09:23:33;21.55;;;7.22;;
38262;SDS011;24054;50.128;19.730;2022-08-25T09:26:18;25.92;;;7.43;;
38262;SDS011;24054;50.128;19.730;2022-08-25T09:28:58;19.27;;;6.85;;
38262;SDS011;24054;50.128;19.730;2022-08-25T09:31:31;27.08;;;8.77;;
38262;SDS011;24054;50.128;19.730;2022-08-25T09:34:01;19.25;;;7.25;;
38262;SDS011;24054;50.128;19.730;2022-08-25T09:36:31;25.13;;;7.93;;
38262;SDS011;24054;50.128;19.730;2022-08-25T09:38:59;23.13;;;6.70;;
38262;SDS011;24054;50.128;19.730;2022-08-25T09:41:40;26.75;;;6.97;;
38262;SDS011;24054;50.128;19.730;2022-08-25T09:44:15;21.13;;;7.32;;
38262;SDS011;24054;50.128;19.730;2022-08-25T09:46:55;19.17;;;6.85;;
38262;SDS011;24054;50.128;19.730;2022-08-25T09:49:36;25.67;;;6.57;;
38262;SDS011;24054;50.128;19.730;2022-08-25T09:52:19;19.77;;;7.30;;
38262;SDS011;24054;50.128;19.730;2022-08-25T09:54:59;19.30;;;7.20;;
38262;SDS011;24054;50.128;19.730;2022-08-25T09:57:46;22.83;;;6.60;;
38262;SDS011;24054;50.128;19.730;2022-08-25T10:00:17;18.20;;;6.22;;
38262;SDS011;24054;50.128;19.730;2022-08-25T10:03:01;26.50;;;7.80;;
38262;SDS011;24054;50.128;19.730;2022-08-25T10:05:31;20.27;;;7.10;;
38262;SDS011;24054;50.128;19.730;2022-08-25T10:08:08;20.33;;;7.18;;
38262;SDS011;24054;50.128;19.730;2022-08-25T10:10:39;19.77;;;7.20;;
38262;SDS011;24054;50.128;19.730;2022-08-25T10:13:12;25.25;;;7.68;;
38262;SDS011;24054;50.128;19.730;2022-08-25T10:15:41;23.20;;;6.75;;
38262;SDS011;24054;50.128;19.730;2022-08-25T10:18:18;24.77;;;7.32;;
38262;SDS011;24054;50.128;19.730;2022-08-25T10:21:06;23.67;;;7.18;;
38262;SDS011;24054;50.128;19.730;2022-08-25T10:23:36;19.10;;;6.78;;
38262;SDS011;24054;50.128;19.730;2022-08-25T10:26:12;23.40;;;7.50;;
38262;SDS011;24054;50.128;19.730;2022-08-25T10:28:49;17.30;;;7.35;;
38262;SDS011;24054;50.128;19.730;2022-08-25T10:34:02;27.73;;;6.90;;
38262;SDS011;24054;50.128;19.730;2022-08-25T10:36:44;18.25;;;7.68;;
38262;SDS011;24054;50.128;19.730;2022-08-25T10:39:27;14.52;;;6.63;;
38262;SDS011;24054;50.128;19.730;2022-08-25T10:42:05;15.95;;;6.93;;
38262;SDS011;24054;50.128;19.730;2022-08-25T10:44:49;16.90;;;7.43;;
38262;SDS011;24054;50.128;19.730;2022-08-25T10:47:47;18.73;;;9.27;;
38262;SDS011;24054;50.128;19.730;2022-08-25T10:50:35;21.45;;;9.27;;
38262;SDS011;24054;50.128;19.730;2022-08-25T10:53:18;20.42;;;8.82;;
38262;SDS011;24054;50.128;19.730;2022-08-25T10:55:54;21.45;;;9.18;;
38262;SDS011;24054;50.128;19.730;2022-08-25T10:58:33;19.52;;;8.35;;
38262;SDS011;24054;50.128;19.730;2022-08-25T11:01:32;16.83;;;8.90;;
38262;SDS011;24054;50.128;19.730;2022-08-25T11:04:09;19.58;;;8.65;;
38262;SDS011;24054;50.128;19.730;2022-08-25T11:06:41;16.70;;;7.47;;
38262;SDS011;24054;50.128;19.730;2022-08-25T11:09:15;18.77;;;8.60;;
38262;SDS011;24054;50.128;19.730;2022-08-25T11:11:48;17.35;;;9.00;;
38262;SDS011;24054;50.128;19.730;2022-08-25T11:14:22;25.42;;;9.30;;
38262;SDS011;24054;50.128;19.730;2022-08-25T11:16:56;16.75;;;8.63;;
38262;SDS011;24054;50.128;19.730;2022-08-25T11:19:27;14.77;;;9.50;;
38262;SDS011;24054;50.128;19.730;2022-08-25T11:22:00;25.00;;;9.77;;
38262;SDS011;24054;50.128;19.730;2022-08-25T11:24:39;16.40;;;9.55;;
38262;SDS011;24054;50.128;19.730;2022-08-25T11:27:14;16.17;;;10.52;;
38262;SDS011;24054;50.128;19.730;2022-08-25T11:29:46;17.90;;;10.55;;
38262;SDS011;24054;50.128;19.730;2022-08-25T11:32:19;18.35;;;11.10;;
38262;SDS011;24054;50.128;19.730;2022-08-25T11:34:48;16.20;;;11.13;;
38262;SDS011;24054;50.128;19.730;2022-08-25T11:37:23;15.88;;;11.27;;
38262;SDS011;24054;50.128;19.730;2022-08-25T11:40:13;17.25;;;11.95;;
38262;SDS011;24054;50.128;19.730;2022-08-25T11:43:00;17.60;;;11.68;;
38262;SDS011;24054;50.128;19.730;2022-08-25T11:45:48;18.58;;;12.90;;
38262;SDS011;24054;50.128;19.730;2022-08-25T11:48:38;19.98;;;11.82;;
38262;SDS011;24054;50.128;19.730;2022-08-25T11:51:11;20.60;;;9.77;;
38262;SDS011;24054;50.128;19.730;2022-08-25T11:54:04;15.00;;;10.18;;
38262;SDS011;24054;50.128;19.730;2022-08-25T11:56:56;19.80;;;10.48;;
38262;SDS011;24054;50.128;19.730;2022-08-25T12:02:31;13.82;;;8.23;;
38262;SDS011;24054;50.128;19.730;2022-08-25T12:05:01;23.08;;;10.80;;
38262;SDS011;24054;50.128;19.730;2022-08-25T12:10:56;18.73;;;9.02;;
38262;SDS011;24054;50.128;19.730;2022-08-25T12:13:38;22.85;;;10.07;;
38262;SDS011;24054;50.128;19.730;2022-08-25T12:19:22;17.35;;;8.55;;
38262;SDS011;24054;50.128;19.730;2022-08-25T12:21:54;18.27;;;8.77;;
38262;SDS011;24054;50.128;19.730;2022-08-25T12:24:24;19.80;;;8.50;;
38262;SDS011;24054;50.128;19.730;2022-08-25T12:27:21;15.07;;;8.32;;
38262;SDS011;24054;50.128;19.730;2022-08-25T12:29:52;18.77;;;7.85;;
38262;SDS011;24054;50.128;19.730;2022-08-25T12:32:31;13.50;;;7.75;;
38262;SDS011;24054;50.128;19.730;2022-08-25T12:37:55;22.08;;;8.50;;
38262;SDS011;24054;50.128;19.730;2022-08-25T12:40:30;16.10;;;7.53;;
38262;SDS011;24054;50.128;19.730;2022-08-25T12:43:03;17.70;;;7.32;;
38262;SDS011;24054;50.128;19.730;2022-08-25T12:45:38;17.13;;;7.35;;
38262;SDS011;24054;50.128;19.730;2022-08-25T12:51:09;20.30;;;7.70;;
38262;SDS011;24054;50.128;19.730;2022-08-25T12:53:43;12.98;;;6.55;;
38262;SDS011;24054;50.128;19.730;2022-08-25T12:56:17;16.30;;;7.05;;
38262;SDS011;24054;50.128;19.730;2022-08-25T12:58:49;22.55;;;7.50;;
38262;SDS011;24054;50.128;19.730;2022-08-25T13:01:24;22.48;;;7.60;;
38262;SDS011;24054;50.128;19.730;2022-08-25T13:04:21;18.63;;;7.78;;
38262;SDS011;24054;50.128;19.730;2022-08-25T13:07:04;18.48;;;7.20;;
38262;SDS011;24054;50.128;19.730;2022-08-25T13:12:50;20.83;;;7.13;;
38262;SDS011;24054;50.128;19.730;2022-08-25T13:15:27;18.88;;;6.72;;
38262;SDS011;24054;50.128;19.730;2022-08-25T13:20:53;15.57;;;6.85;;
38262;SDS011;24054;50.128;19.730;2022-08-25T13:23:37;17.33;;;6.95;;
38262;SDS011;24054;50.128;19.730;2022-08-25T13:26:07;20.42;;;6.78;;
38262;SDS011;24054;50.128;19.730;2022-08-25T13:28:37;22.83;;;7.05;;
38262;SDS011;24054;50.128;19.730;2022-08-25T13:31:08;12.93;;;6.90;;
38262;SDS011;24054;50.128;19.730;2022-08-25T13:33:48;17.20;;;6.72;;
38262;SDS011;24054;50.128;19.730;2022-08-25T13:36:17;23.73;;;7.10;;
38262;SDS011;24054;50.128;19.730;2022-08-25T13:39:10;22.42;;;7.72;;
38262;SDS011;24054;50.128;19.730;2022-08-25T13:41:40;21.73;;;6.55;;
38262;SDS011;24054;50.128;19.730;2022-08-25T13:44:10;20.75;;;7.45;;
38262;SDS011;24054;50.128;19.730;2022-08-25T13:46:39;22.30;;;8.13;;
38262;SDS011;24054;50.128;19.730;2022-08-25T13:49:08;25.45;;;7.65;;
38262;SDS011;24054;50.128;19.730;2022-08-25T13:51:35;17.38;;;6.88;;
38262;SDS011;24054;50.128;19.730;2022-08-25T13:54:07;15.50;;;6.93;;
38262;SDS011;24054;50.128;19.730;2022-08-25T13:56:47;17.02;;;6.68;;
38262;SDS011;24054;50.128;19.730;2022-08-25T13:59:18;15.63;;;6.57;;
38262;SDS011;24054;50.128;19.730;2022-08-25T14:01:49;13.80;;;7.13;;
38262;SDS011;24054;50.128;19.730;2022-08-25T14:04:19;15.60;;;6.15;;
38262;SDS011;24054;50.128;19.730;2022-08-25T14:07:05;17.52;;;6.43;;
38262;SDS011;24054;50.128;19.730;2022-08-25T14:09:37;15.65;;;6.30;;
38262;SDS011;24054;50.128;19.730;2022-08-25T14:12:05;18.42;;;6.40;;
38262;SDS011;24054;50.128;19.730;2022-08-25T14:14:33;13.65;;;6.15;;
38262;SDS011;24054;50.128;19.730;2022-08-25T14:17:03;18.05;;;7.13;;
38262;SDS011;24054;50.128;19.730;2022-08-25T14:19:32;10.45;;;6.93;;
38262;SDS011;24054;50.128;19.730;2022-08-25T14:22:02;22.45;;;7.78;;
38262;SDS011;24054;50.128;19.730;2022-08-25T14:24:30;16.83;;;8.35;;
38262;SDS011;24054;50.128;19.730;2022-08-25T14:27:00;22.13;;;11.10;;
38262;SDS011;24054;50.128;19.730;2022-08-25T14:29:27;21.67;;;8.38;;
38262;SDS011;24054;50.128;19.730;2022-08-25T14:32:13;24.05;;;9.30;;
38262;SDS011;24054;50.128;19.730;2022-08-25T14:34:43;21.20;;;8.48;;
38262;SDS011;24054;50.128;19.730;2022-08-25T14:37:11;21.60;;;7.80;;
38262;SDS011;24054;50.128;19.730;2022-08-25T14:39:41;24.88;;;7.80;;
38262;SDS011;24054;50.128;19.730;2022-08-25T14:44:36;16.75;;;7.20;;
38262;SDS011;24054;50.128;19.730;2022-08-25T14:47:05;15.32;;;6.60;;
38262;SDS011;24054;50.128;19.730;2022-08-25T14:49:37;12.23;;;6.38;;
38262;SDS011;24054;50.128;19.730;2022-08-25T14:52:12;10.77;;;5.88;;
38262;SDS011;24054;50.128;19.730;2022-08-25T14:54:45;16.42;;;6.63;;
38262;SDS011;24054;50.128;19.730;2022-08-25T14:57:12;22.20;;;6.47;;
38262;SDS011;24054;50.128;19.730;2022-08-25T14:59:39;14.10;;;5.55;;
38262;SDS011;24054;50.128;19.730;2022-08-25T15:02:07;13.75;;;5.78;;
38262;SDS011;24054;50.128;19.730;2022-08-25T15:04:38;12.50;;;6.00;;
38262;SDS011;24054;50.128;19.730;2022-08-25T15:07:06;12.15;;;5.95;;
38262;SDS011;24054;50.128;19.730;2022-08-25T15:09:53;13.90;;;6.10;;
38262;SDS011;24054;50.128;19.730;2022-08-25T15:12:19;9.93;;;5.53;;
38262;SDS011;24054;50.128;19.730;2022-08-25T15:14:47;13.60;;;5.78;;
38262;SDS011;24054;50.128;19.730;2022-08-25T15:17:14;14.70;;;5.55;;
38262;SDS011;24054;50.128;19.730;2022-08-25T15:19:43;11.65;;;6.28;;
38262;SDS011;24054;50.128;19.730;2022-08-25T15:24:37;14.20;;;6.03;;
38262;SDS011;24054;50.128;19.730;2022-08-25T15:27:04;13.82;;;6.10;;